This is the latest recevied weather packets stored in our database for station/object SP9POL-3. If no packets are shown the sender has not sent any weather packets the latest 10 day(s).
| Time | Temp. | Humidity | Pressure | Rain* | Wind** | Luminosity | Snow |
|---|---|---|---|---|---|---|---|
| 1777652352 | 18.89° C | 26% | 1023 hPa | - | - | - | - |
| 1777650672 | 20.56° C | 24% | 1023 hPa | - | - | - | - |
| 1777648992 | 22.78° C | 21% | 1023 hPa | - | - | - | - |
| 1777647312 | 25.56° C | 19% | 1023.1 hPa | - | - | - | - |
| 1777645632 | 20.56° C | 25% | 1023.2 hPa | - | - | - | - |
| 1777643952 | 19.44° C | 26% | 1023.4 hPa | - | - | - | - |
| 1777642272 | 18.89° C | 28% | 1023.6 hPa | - | - | - | - |
| 1777640592 | 18.89° C | 27% | 1023.7 hPa | - | - | - | - |
| 1777638912 | 20° C | 26% | 1024 hPa | - | - | - | - |
| 1777637231 | 22.22° C | 23% | 1024.2 hPa | - | - | - | - |
| 1777635551 | 20° C | 25% | 1024.2 hPa | - | - | - | - |
| 1777633871 | 17.78° C | 28% | 1024.5 hPa | - | - | - | - |
| 1777632191 | 16.11° C | 31% | 1024.5 hPa | - | - | - | - |
| 1777630511 | 15° C | 34% | 1024.8 hPa | - | - | - | - |
| 1777628830 | 13.89° C | 34% | 1024.8 hPa | - | - | - | - |
| 1777627150 | 13.33° C | 33% | 1024.8 hPa | - | - | - | - |
| 1777625470 | 12.78° C | 34% | 1025 hPa | - | - | - | - |
| 1777623789 | 12.22° C | 35% | 1025.1 hPa | - | - | - | - |
| 1777622109 | 11.67° C | 36% | 1025 hPa | - | - | - | - |
| 1777620429 | 10.56° C | 39% | 1025 hPa | - | - | - | - |
| 1777618748 | 10° C | 40% | 1025 hPa | - | - | - | - |
| 1777617068 | 9.44° C | 42% | 1025.1 hPa | - | - | - | - |
| 1777615388 | 8.89° C | 42% | 1025.1 hPa | - | - | - | - |
| 1777613707 | 8.33° C | 42% | 1025.1 hPa | - | - | - | - |
| 1777612027 | 7.78° C | 41% | 1025.2 hPa | - | - | - | - |
* Rain since midnight (hover to see other rain measurements)
** Current wind speed in m/s (hover to see current wind gust speed)